createdAt,value
2023-01-21T00:01:11.851Z,27.15
2023-01-21T00:03:39.741Z,27.52
2023-01-21T00:06:08.151Z,27.45
2023-01-21T00:08:35.912Z,27.06
2023-01-21T00:11:12.124Z,27.20
2023-01-21T00:13:39.746Z,27.16
2023-01-21T00:16:07.901Z,27.26
2023-01-21T00:18:35.761Z,27.27
2023-01-21T00:21:03.479Z,27.79
2023-01-21T00:23:31.089Z,27.88
2023-01-21T00:26:04.152Z,27.40
2023-01-21T00:28:34.146Z,27.46
2023-01-21T00:31:03.998Z,28.11
2023-01-21T00:33:33.225Z,27.71
2023-01-21T00:36:09.852Z,27.86
2023-01-21T00:38:38.149Z,27.45
2023-01-21T00:41:07.044Z,27.13
2023-01-21T00:43:35.189Z,27.73
2023-01-21T00:46:03.039Z,27.36
2023-01-21T00:48:30.687Z,27.77
2023-01-21T00:51:01.944Z,27.54
2023-01-21T00:53:31.837Z,27.48
2023-01-21T00:56:04.743Z,27.51
2023-01-21T00:58:32.911Z,27.05
2023-01-21T01:01:05.557Z,27.78
2023-01-21T01:03:34.023Z,27.77
2023-01-21T01:06:09.045Z,28.27
2023-01-21T01:08:36.677Z,28.18
2023-01-21T01:11:05.166Z,27.69
2023-01-21T01:13:34.894Z,27.87
2023-01-21T01:16:02.986Z,26.64
2023-01-21T01:18:34.183Z,27.65
2023-01-21T01:21:02.764Z,27.04
2023-01-21T01:23:30.546Z,27.32
2023-01-21T01:26:04.944Z,27.26
2023-01-21T01:28:33.368Z,27.83
2023-01-21T01:31:01.403Z,27.86
2023-01-21T01:33:32.026Z,27.89
2023-01-21T01:36:08.828Z,27.74
2023-01-21T01:38:37.009Z,27.60
2023-01-21T01:41:04.970Z,27.54
2023-01-21T01:43:57.764Z,27.85
2023-01-21T01:46:39.970Z,27.73
2023-01-21T01:49:17.407Z,27.58
2023-01-21T01:51:52.049Z,27.83
2023-01-21T01:54:35.133Z,27.64
2023-01-21T01:57:06.969Z,27.74
2023-01-21T01:59:35.278Z,27.47
2023-01-21T02:02:08.337Z,27.50
2023-01-21T02:04:43.461Z,27.49
2023-01-21T02:07:11.191Z,27.75
2023-01-21T02:09:38.887Z,27.40
2023-01-21T02:12:07.575Z,28.10
2023-01-21T02:14:43.040Z,27.38
2023-01-21T02:17:55.569Z,27.23
2023-01-21T02:20:23.552Z,27.55
2023-01-21T02:23:03.342Z,27.74
2023-01-21T02:25:49.053Z,27.52
2023-01-21T02:28:54.759Z,27.72
2023-01-21T02:31:28.424Z,28.05
2023-01-21T02:34:02.084Z,27.88
2023-01-21T02:36:35.223Z,28.24
2023-01-21T02:39:25.179Z,28.15
2023-01-21T02:42:07.119Z,27.09
2023-01-21T02:45:01.144Z,27.30
2023-01-21T02:47:40.984Z,27.13
2023-01-21T02:50:28.866Z,27.25
2023-01-21T02:53:02.696Z,27.95
2023-01-21T02:55:43.453Z,27.49
2023-01-21T02:58:15.131Z,27.55
2023-01-21T03:00:52.388Z,27.56
2023-01-21T03:03:36.856Z,27.67
2023-01-21T03:06:35.257Z,27.52
2023-01-21T03:09:27.039Z,27.30
2023-01-21T03:12:10.425Z,27.60
2023-01-21T03:15:12.443Z,27.55
2023-01-21T03:17:50.099Z,27.61
2023-01-21T03:20:27.852Z,27.46
2023-01-21T03:23:08.524Z,27.51
2023-01-21T03:25:38.227Z,28.46
2023-01-21T03:28:12.002Z,27.64
2023-01-21T03:30:44.531Z,27.86
2023-01-21T03:33:14.751Z,28.01
2023-01-21T03:35:46.098Z,27.35
2023-01-21T03:38:38.668Z,27.36
2023-01-21T03:41:15.862Z,27.67
2023-01-21T03:43:43.673Z,28.09
2023-01-21T03:46:22.052Z,27.56
2023-01-21T03:49:03.359Z,27.33
2023-01-21T03:51:36.836Z,27.24
2023-01-21T03:54:04.434Z,27.17
2023-01-21T03:56:31.948Z,27.77
2023-01-21T03:58:59.467Z,27.52
2023-01-21T04:01:27.124Z,27.26
2023-01-21T04:03:54.674Z,27.37
2023-01-21T04:06:23.721Z,27.30
2023-01-21T04:08:51.280Z,27.69
2023-01-21T04:11:18.844Z,27.02
2023-01-21T04:13:46.404Z,27.40
2023-01-21T04:16:14.137Z,26.68
2023-01-21T04:18:41.844Z,27.63
2023-01-21T04:21:09.390Z,27.44
2023-01-21T04:23:36.895Z,27.32
2023-01-21T04:26:04.590Z,27.58
2023-01-21T04:28:32.242Z,27.14
2023-01-21T04:31:00.304Z,26.91
2023-01-21T04:33:27.999Z,26.08
2023-01-21T04:36:00.025Z,26.11
2023-01-21T04:38:27.857Z,25.78
2023-01-21T04:40:55.317Z,25.25
2023-01-21T04:43:22.954Z,25.73
2023-01-21T04:45:50.631Z,25.77
2023-01-21T04:48:18.305Z,25.94
2023-01-21T04:50:47.400Z,26.17
2023-01-21T04:53:14.953Z,25.78
2023-01-21T04:55:42.657Z,25.91
2023-01-21T04:58:10.170Z,26.21
2023-01-21T05:00:37.908Z,25.98
2023-01-21T05:03:05.370Z,26.34
2023-01-21T05:05:32.840Z,26.34
2023-01-21T05:08:00.442Z,25.77
2023-01-21T05:10:27.984Z,25.97
2023-01-21T05:12:55.531Z,26.01
2023-01-21T05:15:23.520Z,25.87
2023-01-21T05:17:51.362Z,25.85
2023-01-21T05:20:19.537Z,25.85
2023-01-21T05:22:49.487Z,26.05
2023-01-21T05:25:24.797Z,25.71
2023-01-21T05:27:54.553Z,25.89
2023-01-21T05:30:32.791Z,26.01
2023-01-21T05:33:03.392Z,25.94
2023-01-21T05:35:36.053Z,25.76
2023-01-21T05:38:03.830Z,26.36
2023-01-21T05:40:31.378Z,26.42
2023-01-21T05:42:59.040Z,25.37
2023-01-21T05:45:26.560Z,25.73
2023-01-21T05:47:54.278Z,25.18
2023-01-21T05:50:21.794Z,25.23
2023-01-21T05:52:49.289Z,24.49
2023-01-21T05:55:16.896Z,24.42
2023-01-21T05:57:44.363Z,23.13
2023-01-21T06:00:12.413Z,23.40
2023-01-21T06:02:39.947Z,22.64
2023-01-21T06:05:07.808Z,21.88
2023-01-21T06:07:35.311Z,22.20
2023-01-21T06:10:02.859Z,20.59
2023-01-21T06:12:30.711Z,20.85
2023-01-21T06:14:59.633Z,19.70
2023-01-21T06:17:27.111Z,19.54
2023-01-21T06:19:54.926Z,19.15
2023-01-21T06:22:22.502Z,18.84
2023-01-21T06:24:50.023Z,18.02
2023-01-21T06:27:17.448Z,17.14
2023-01-21T06:29:44.975Z,17.19
2023-01-21T06:32:12.604Z,17.58
2023-01-21T06:34:40.208Z,17.05
2023-01-21T06:37:07.847Z,15.94
2023-01-21T06:39:39.173Z,16.62
2023-01-21T06:42:09.276Z,16.12
2023-01-21T06:44:36.844Z,15.81
2023-01-21T06:47:05.318Z,15.42
2023-01-21T06:49:33.164Z,15.13
2023-01-21T06:52:05.858Z,15.15
2023-01-21T06:54:55.968Z,15.21
2023-01-21T06:57:26.271Z,15.21
2023-01-21T06:59:58.543Z,14.31
2023-01-21T07:02:31.026Z,14.28
2023-01-21T07:05:12.589Z,14.66
2023-01-21T07:07:42.003Z,14.15
2023-01-21T07:10:19.588Z,14.30
2023-01-21T07:12:49.623Z,13.90
2023-01-21T07:15:17.907Z,13.50
2023-01-21T07:17:45.833Z,13.13
2023-01-21T07:20:13.681Z,13.87
2023-01-21T07:22:41.316Z,13.91
2023-01-21T07:25:09.586Z,13.86
2023-01-21T07:27:37.584Z,14.06
2023-01-21T07:30:06.880Z,13.98
2023-01-21T07:32:37.490Z,13.79
2023-01-21T07:35:05.675Z,14.35
2023-01-21T07:37:33.759Z,14.25
2023-01-21T07:40:01.422Z,14.87
2023-01-21T07:42:29.179Z,14.79
2023-01-21T07:44:57.712Z,14.72
2023-01-21T07:47:25.688Z,14.54
2023-01-21T07:49:53.430Z,14.54
2023-01-21T07:52:23.787Z,15.16
2023-01-21T07:54:51.619Z,14.91
2023-01-21T07:57:31.937Z,14.96
2023-01-21T08:00:04.857Z,15.01
2023-01-21T08:02:41.586Z,15.17
2023-01-21T08:05:10.247Z,15.71
2023-01-21T08:07:37.984Z,15.92
2023-01-21T08:10:20.178Z,15.94
2023-01-21T08:12:48.027Z,15.83
2023-01-21T08:15:15.919Z,16.11
2023-01-21T08:17:45.070Z,16.79
2023-01-21T08:20:13.119Z,17.00
2023-01-21T08:22:40.617Z,17.16
2023-01-21T08:25:08.815Z,17.14
2023-01-21T08:27:36.408Z,17.40
2023-01-21T08:30:04.508Z,17.69
2023-01-21T08:32:32.148Z,18.01
2023-01-21T08:34:59.745Z,18.00
2023-01-21T08:37:27.255Z,18.44
2023-01-21T08:39:54.681Z,18.51
2023-01-21T08:42:22.217Z,18.34
2023-01-21T08:44:51.336Z,18.73
2023-01-21T08:47:19.056Z,18.90
2023-01-21T08:49:46.604Z,21.30
2023-01-21T08:52:17.444Z,20.10
2023-01-21T08:54:45.338Z,19.89
2023-01-21T08:57:13.108Z,19.39
2023-01-21T08:59:40.747Z,19.42
2023-01-21T09:02:10.815Z,19.48
2023-01-21T09:04:38.433Z,19.38
2023-01-21T09:07:05.980Z,19.54
2023-01-21T09:09:33.731Z,19.96
2023-01-21T09:12:01.358Z,20.00
2023-01-21T09:14:29.403Z,20.01
2023-01-21T09:16:57.099Z,19.95
2023-01-21T09:19:25.494Z,19.78
2023-01-21T09:21:54.718Z,19.73
2023-01-21T09:24:22.532Z,20.20
2023-01-21T09:26:49.999Z,20.54
2023-01-21T09:29:17.585Z,20.41
2023-01-21T09:31:45.342Z,20.42
2023-01-21T09:34:12.973Z,20.13
2023-01-21T09:36:40.915Z,20.92
2023-01-21T09:39:08.797Z,20.75
2023-01-21T09:41:46.337Z,20.98
2023-01-21T09:44:29.077Z,21.17
2023-01-21T09:47:15.353Z,21.29
2023-01-21T09:49:53.255Z,21.49
2023-01-21T09:52:35.654Z,21.47
2023-01-21T09:55:05.227Z,21.98
2023-01-21T09:58:14.691Z,21.50
2023-01-21T10:01:00.824Z,21.71
2023-01-21T10:03:49.835Z,22.02
2023-01-21T10:06:19.945Z,21.81
2023-01-21T10:09:05.671Z,22.08
2023-01-21T10:11:36.020Z,22.21
2023-01-21T10:14:36.711Z,22.33
2023-01-21T10:17:06.905Z,22.41
2023-01-21T10:19:48.638Z,22.42
2023-01-21T10:22:27.388Z,22.51
2023-01-21T10:25:03.395Z,22.69
2023-01-21T10:27:35.753Z,22.43
2023-01-21T10:30:20.255Z,22.68
2023-01-21T10:32:51.444Z,22.78
2023-01-21T10:35:21.357Z,22.25
2023-01-21T10:38:13.940Z,22.76
2023-01-21T10:40:54.008Z,22.57
2023-01-21T10:43:42.042Z,22.32
2023-01-21T10:46:41.520Z,22.80
2023-01-21T10:49:40.624Z,22.50
2023-01-21T10:52:16.236Z,21.89
2023-01-21T10:55:20.559Z,22.06
2023-01-21T10:58:00.699Z,22.52
2023-01-21T11:00:44.913Z,22.55
2023-01-21T11:03:22.683Z,22.72
2023-01-21T11:05:50.411Z,23.38
2023-01-21T11:08:23.375Z,23.30
2023-01-21T11:10:56.497Z,23.41
2023-01-21T11:13:24.494Z,23.66
2023-01-21T11:15:58.200Z,24.64
2023-01-21T11:18:37.285Z,23.88
2023-01-21T11:21:23.874Z,24.29
2023-01-21T11:24:06.701Z,24.09
2023-01-21T11:26:36.374Z,24.16
2023-01-21T11:29:16.682Z,24.02
2023-01-21T11:31:51.066Z,23.95
2023-01-21T11:34:23.724Z,23.84
2023-01-21T11:36:59.952Z,24.26
2023-01-21T11:39:30.392Z,23.82
2023-01-21T11:42:03.357Z,23.97
2023-01-21T11:44:31.285Z,24.20
2023-01-21T11:46:58.788Z,24.02
2023-01-21T11:49:32.103Z,24.17
2023-01-21T11:52:18.565Z,24.54
2023-01-21T11:54:46.982Z,24.24
2023-01-21T11:57:26.244Z,24.19
2023-01-21T11:59:58.640Z,24.64
2023-01-21T12:02:31.582Z,24.51
2023-01-21T12:05:10.191Z,24.64
2023-01-21T12:07:42.819Z,24.40
2023-01-21T12:10:13.543Z,24.63
2023-01-21T12:12:41.191Z,24.33
2023-01-21T12:15:41.089Z,23.84
2023-01-21T12:18:34.931Z,24.17
2023-01-21T12:21:11.924Z,24.49
2023-01-21T12:24:16.015Z,24.21
2023-01-21T12:26:46.288Z,23.76
2023-01-21T12:29:38.824Z,24.16
2023-01-21T12:32:28.292Z,24.08
2023-01-21T12:35:09.548Z,24.46
2023-01-21T12:37:49.218Z,24.43
2023-01-21T12:40:27.943Z,24.98
2023-01-21T12:43:02.831Z,24.97
2023-01-21T12:45:43.862Z,25.01
2023-01-21T12:48:22.215Z,25.36
2023-01-21T12:50:59.253Z,24.71
2023-01-21T12:53:42.215Z,25.02
2023-01-21T12:56:33.330Z,24.71
2023-01-21T12:59:13.566Z,24.42
2023-01-21T13:02:06.483Z,24.58
2023-01-21T13:04:44.283Z,24.01
2023-01-21T13:07:49.243Z,24.12
2023-01-21T13:10:42.539Z,24.34
2023-01-21T13:13:19.986Z,24.26
2023-01-21T13:15:53.185Z,25.41
2023-01-21T13:18:28.406Z,25.20
2023-01-21T13:21:03.904Z,24.80
2023-01-21T13:23:42.908Z,24.64
2023-01-21T13:26:18.952Z,25.18
2023-01-21T13:29:00.106Z,24.83
2023-01-21T13:31:59.778Z,25.13
2023-01-21T13:34:39.317Z,24.23
2023-01-21T13:37:25.583Z,24.92
2023-01-21T13:40:11.592Z,24.80
2023-01-21T13:43:15.115Z,24.81
2023-01-21T13:45:48.491Z,24.51
2023-01-21T13:48:21.946Z,25.58
2023-01-21T13:51:04.536Z,24.53
2023-01-21T13:54:26.003Z,24.46
2023-01-21T13:57:28.697Z,24.68
2023-01-21T14:00:19.512Z,25.16
2023-01-21T14:03:08.633Z,25.37
2023-01-21T14:05:43.086Z,24.91
2023-01-21T14:08:20.662Z,24.80
2023-01-21T14:10:55.931Z,25.12
2023-01-21T14:13:47.863Z,25.11
2023-01-21T14:16:41.167Z,25.15
2023-01-21T14:19:38.117Z,24.97
2023-01-21T14:22:16.463Z,24.81
2023-01-21T14:25:02.576Z,25.06
2023-01-21T14:28:07.743Z,25.40
2023-01-21T14:30:43.880Z,25.14
2023-01-21T14:33:22.710Z,25.23
2023-01-21T14:36:02.807Z,25.44
2023-01-21T14:38:46.588Z,25.81
2023-01-21T14:41:14.164Z,25.53
2023-01-21T14:43:42.224Z,25.95
2023-01-21T14:46:24.520Z,25.32
2023-01-21T14:49:09.498Z,25.50
2023-01-21T14:51:43.525Z,25.10
2023-01-21T14:54:18.208Z,25.62
2023-01-21T14:57:01.761Z,25.50
2023-01-21T14:59:42.009Z,24.79
2023-01-21T15:02:37.670Z,25.69
2023-01-21T15:05:22.334Z,25.56
2023-01-21T15:08:00.207Z,25.36
2023-01-21T15:10:34.368Z,25.88
2023-01-21T15:13:05.875Z,24.96
2023-01-21T15:15:37.201Z,25.27
2023-01-21T15:18:10.798Z,25.03
2023-01-21T15:20:50.100Z,25.46
2023-01-21T15:23:19.144Z,24.90
2023-01-21T15:26:03.926Z,25.34
2023-01-21T15:28:58.368Z,24.50
2023-01-21T15:31:25.937Z,25.00
2023-01-21T15:33:59.352Z,25.05
2023-01-21T15:36:35.033Z,25.16
2023-01-21T15:39:13.578Z,25.29
2023-01-21T15:41:54.661Z,24.87
2023-01-21T15:44:50.563Z,24.87
2023-01-21T15:47:51.907Z,24.71
2023-01-21T15:50:30.654Z,24.43
2023-01-21T15:53:17.894Z,24.72
2023-01-21T15:56:14.666Z,24.75
2023-01-21T15:59:06.638Z,25.21
2023-01-21T16:01:37.571Z,24.45
2023-01-21T16:04:41.726Z,24.41
2023-01-21T16:07:46.139Z,24.53
2023-01-21T16:10:36.922Z,24.10
2023-01-21T16:13:29.618Z,24.32
2023-01-21T16:16:26.046Z,24.23
2023-01-21T16:19:19.467Z,24.45
2023-01-21T16:21:51.424Z,24.59
2023-01-21T16:24:24.550Z,24.51
2023-01-21T16:26:52.269Z,24.71
2023-01-21T16:29:19.954Z,24.27
2023-01-21T16:32:00.103Z,24.73
2023-01-21T16:34:36.672Z,24.82
2023-01-21T16:37:10.683Z,24.46
2023-01-21T16:39:38.301Z,25.16
2023-01-21T16:42:07.614Z,24.34
2023-01-21T16:44:36.039Z,24.76
2023-01-21T16:47:04.128Z,24.94
2023-01-21T16:49:31.743Z,24.22
2023-01-21T16:52:03.391Z,24.18
2023-01-21T16:54:33.575Z,24.02
2023-01-21T16:57:01.100Z,24.61
2023-01-21T16:59:39.881Z,24.53
2023-01-21T17:02:21.013Z,24.41
2023-01-21T17:04:49.172Z,24.04
2023-01-21T17:07:24.846Z,24.08
2023-01-21T17:10:01.408Z,24.45
2023-01-21T17:12:34.083Z,24.45
2023-01-21T17:15:17.663Z,24.71
2023-01-21T17:17:46.355Z,24.52
2023-01-21T17:20:38.542Z,24.63
2023-01-21T17:23:20.231Z,24.46
2023-01-21T17:25:56.071Z,24.29
2023-01-21T17:28:37.757Z,24.72
2023-01-21T17:31:23.257Z,24.28
2023-01-21T17:34:07.372Z,24.60
2023-01-21T17:36:37.456Z,24.17
2023-01-21T17:39:08.028Z,24.29
2023-01-21T17:41:38.177Z,24.09
2023-01-21T17:44:16.073Z,24.00
2023-01-21T17:46:49.152Z,24.06
2023-01-21T17:49:23.619Z,23.78
2023-01-21T17:51:54.760Z,23.77
2023-01-21T17:54:23.756Z,23.92
2023-01-21T17:56:59.023Z,23.47
2023-01-21T17:59:45.866Z,24.20
2023-01-21T18:02:13.443Z,24.02
2023-01-21T18:04:41.239Z,23.85
2023-01-21T18:07:26.615Z,24.28
2023-01-21T18:09:59.165Z,23.59
2023-01-21T18:12:26.674Z,24.24
2023-01-21T18:14:54.267Z,23.90
2023-01-21T18:17:25.249Z,24.04
2023-01-21T18:19:54.044Z,23.53
2023-01-21T18:22:25.092Z,23.46
2023-01-21T18:24:52.778Z,24.02
2023-01-21T18:27:25.654Z,24.18
2023-01-21T18:29:53.867Z,23.81
2023-01-21T18:32:21.533Z,24.18
2023-01-21T18:34:49.062Z,23.77
2023-01-21T18:37:18.899Z,23.41
2023-01-21T18:39:47.180Z,24.06
2023-01-21T18:42:16.487Z,23.72
2023-01-21T18:44:44.833Z,24.05
2023-01-21T18:47:17.975Z,23.88
2023-01-21T18:49:49.605Z,24.63
2023-01-21T18:52:19.470Z,24.13
2023-01-21T18:54:47.183Z,23.91
2023-01-21T18:57:18.019Z,24.42
2023-01-21T18:59:45.471Z,23.76
2023-01-21T19:02:16.191Z,23.24
2023-01-21T19:04:44.554Z,23.45
2023-01-21T19:07:19.701Z,23.77
2023-01-21T19:09:49.437Z,23.42
2023-01-21T19:12:18.949Z,23.58
2023-01-21T19:14:46.628Z,23.66
2023-01-21T19:17:16.432Z,23.11
2023-01-21T19:19:44.018Z,23.43
2023-01-21T19:22:15.450Z,23.27
2023-01-21T19:24:43.234Z,23.85
2023-01-21T19:27:26.903Z,23.36
2023-01-21T19:29:54.689Z,23.79
2023-01-21T19:32:22.612Z,23.40
2023-01-21T19:34:50.070Z,23.04
2023-01-21T19:37:24.114Z,23.55
2023-01-21T19:39:51.652Z,23.58
2023-01-21T19:42:19.159Z,23.23
2023-01-21T19:44:46.765Z,23.59
2023-01-21T19:47:19.682Z,24.14
2023-01-21T19:49:48.027Z,23.58
2023-01-21T19:52:15.579Z,23.45
2023-01-21T19:54:43.054Z,23.63
2023-01-21T19:57:15.269Z,23.55
2023-01-21T19:59:44.734Z,24.04
2023-01-21T20:02:12.987Z,23.80
2023-01-21T20:04:40.718Z,23.75
2023-01-21T20:07:15.045Z,23.51
2023-01-21T20:09:42.896Z,23.72
2023-01-21T20:12:13.691Z,23.67
2023-01-21T20:14:41.341Z,23.80
2023-01-21T20:17:13.249Z,24.01
2023-01-21T20:19:41.189Z,23.64
2023-01-21T20:22:08.773Z,23.58
2023-01-21T20:24:36.292Z,24.51
2023-01-21T20:27:08.641Z,24.15
2023-01-21T20:29:44.441Z,23.92
2023-01-21T20:32:11.944Z,23.57
2023-01-21T20:34:42.494Z,23.53
2023-01-21T20:37:14.107Z,23.75
2023-01-21T20:39:41.842Z,23.99
2023-01-21T20:42:12.395Z,23.54
2023-01-21T20:44:40.219Z,23.67
2023-01-21T20:47:11.620Z,23.58
2023-01-21T20:49:39.272Z,24.33
2023-01-21T20:52:11.074Z,24.34
2023-01-21T20:54:38.798Z,23.74
2023-01-21T20:57:15.368Z,24.09
2023-01-21T20:59:42.846Z,24.25
2023-01-21T21:02:12.474Z,24.03
2023-01-21T21:04:40.386Z,24.19
2023-01-21T21:07:16.251Z,24.32
2023-01-21T21:09:43.843Z,24.46
2023-01-21T21:12:11.307Z,24.25
2023-01-21T21:14:38.906Z,24.62
2023-01-21T21:17:12.087Z,24.59
2023-01-21T21:19:39.588Z,24.74
2023-01-21T21:22:07.446Z,24.63
2023-01-21T21:24:35.002Z,24.78
2023-01-21T21:27:03.861Z,24.91
2023-01-21T21:29:31.466Z,23.70
2023-01-21T21:32:02.520Z,24.44
2023-01-21T21:34:30.245Z,24.72
2023-01-21T21:36:57.900Z,24.69
2023-01-21T21:39:26.316Z,24.17
2023-01-21T21:42:12.621Z,24.28
2023-01-21T21:44:44.814Z,24.53
2023-01-21T21:47:31.137Z,24.57
2023-01-21T21:50:04.374Z,25.06
2023-01-21T21:52:33.170Z,24.79
2023-01-21T21:55:00.875Z,25.46
2023-01-21T21:57:30.495Z,24.71
2023-01-21T21:59:58.081Z,24.83
2023-01-21T22:02:25.626Z,25.48
2023-01-21T22:04:55.220Z,25.14
2023-01-21T22:07:22.687Z,25.94
2023-01-21T22:09:50.185Z,25.39
2023-01-21T22:12:17.859Z,25.92
2023-01-21T22:14:45.368Z,25.57
2023-01-21T22:17:12.853Z,25.41
2023-01-21T22:19:40.387Z,25.76
2023-01-21T22:22:07.875Z,25.56
2023-01-21T22:24:35.459Z,25.46
2023-01-21T22:27:03.083Z,25.40
2023-01-21T22:29:30.562Z,25.78
2023-01-21T22:31:58.197Z,25.56
2023-01-21T22:34:25.748Z,24.85
2023-01-21T22:36:53.290Z,25.37
2023-01-21T22:39:21.113Z,25.50
2023-01-21T22:41:48.627Z,24.81
2023-01-21T22:44:16.214Z,24.93
2023-01-21T22:46:43.859Z,24.92
2023-01-21T22:49:12.471Z,25.32
2023-01-21T22:51:40.062Z,26.12
2023-01-21T22:54:07.972Z,25.91
2023-01-21T22:56:51.136Z,25.76
2023-01-21T22:59:19.509Z,26.10
2023-01-21T23:01:48.966Z,26.30
2023-01-21T23:04:17.677Z,25.92
2023-01-21T23:06:45.537Z,26.44
2023-01-21T23:09:15.599Z,26.45
2023-01-21T23:11:45.369Z,26.23
2023-01-21T23:14:13.216Z,26.53
2023-01-21T23:16:40.960Z,26.55
2023-01-21T23:19:08.470Z,26.31
2023-01-21T23:21:37.966Z,26.63
2023-01-21T23:24:06.872Z,26.28
2023-01-21T23:26:34.567Z,26.35
2023-01-21T23:29:02.141Z,26.12
2023-01-21T23:31:29.733Z,26.21
2023-01-21T23:33:57.499Z,26.61
2023-01-21T23:36:25.010Z,27.19
2023-01-21T23:38:52.715Z,26.80
2023-01-21T23:41:21.335Z,26.35
2023-01-21T23:43:48.908Z,27.07
2023-01-21T23:46:19.719Z,27.26
2023-01-21T23:48:47.786Z,26.77
2023-01-21T23:51:18.608Z,26.74
2023-01-21T23:53:51.790Z,26.75
2023-01-21T23:56:26.561Z,27.84
2023-01-21T23:58:54.456Z,27.06
